createdAt,value
2019-03-29T00:01:54.568Z,5.77
2019-03-29T00:04:24.501Z,5.57
2019-03-29T00:06:54.613Z,6.67
2019-03-29T00:09:24.587Z,6.60
2019-03-29T00:11:54.756Z,5.87
2019-03-29T00:14:24.743Z,6.33
2019-03-29T00:16:54.868Z,6.40
2019-03-29T00:19:24.972Z,5.90
2019-03-29T00:21:54.974Z,6.20
2019-03-29T00:24:25.132Z,5.47
2019-03-29T00:26:55.075Z,6.37
2019-03-29T00:29:25.204Z,6.07
2019-03-29T00:31:55.374Z,6.30
2019-03-29T00:34:25.435Z,6.73
2019-03-29T00:36:55.713Z,6.30
2019-03-29T00:39:25.745Z,6.43
2019-03-29T00:41:55.807Z,6.70
2019-03-29T00:44:26.208Z,6.97
2019-03-29T00:46:57.100Z,6.83
2019-03-29T00:49:27.078Z,6.20
2019-03-29T00:51:57.185Z,7.27
2019-03-29T00:54:27.948Z,6.50
2019-03-29T00:56:58.222Z,6.77
2019-03-29T00:59:28.503Z,7.03
2019-03-29T01:01:58.527Z,6.03
2019-03-29T01:04:29.081Z,6.93
2019-03-29T01:06:59.155Z,6.93
2019-03-29T01:09:29.306Z,6.93
2019-03-29T01:11:59.524Z,7.57
2019-03-29T01:14:29.478Z,6.47
2019-03-29T01:16:59.561Z,6.93
2019-03-29T01:19:29.899Z,8.00
2019-03-29T01:21:59.948Z,7.00
2019-03-29T01:24:29.825Z,7.13
2019-03-29T01:27:00.048Z,6.97
2019-03-29T01:29:30.941Z,7.20
2019-03-29T01:32:01.430Z,7.33
2019-03-29T01:34:31.717Z,6.73
2019-03-29T01:37:01.657Z,7.30
2019-03-29T01:39:31.641Z,7.90
2019-03-29T01:42:01.767Z,8.33
2019-03-29T01:44:31.883Z,8.10
2019-03-29T01:47:01.943Z,8.37
2019-03-29T01:49:31.973Z,8.77
2019-03-29T01:52:02.151Z,7.50
2019-03-29T01:54:32.196Z,8.30
2019-03-29T01:57:02.366Z,8.03
2019-03-29T01:59:32.713Z,8.17
2019-03-29T02:02:04.207Z,8.13
2019-03-29T02:04:34.990Z,7.70
2019-03-29T02:07:05.309Z,8.17
2019-03-29T02:09:35.487Z,8.87
2019-03-29T02:12:07.002Z,9.00
2019-03-29T02:14:37.237Z,9.10
2019-03-29T02:17:07.582Z,7.53
2019-03-29T02:19:37.390Z,8.40
2019-03-29T02:22:08.324Z,7.23
2019-03-29T02:24:38.945Z,8.57
2019-03-29T02:27:09.015Z,8.00
2019-03-29T02:29:39.123Z,9.07
2019-03-29T02:32:09.339Z,8.30
2019-03-29T02:34:39.323Z,8.60
2019-03-29T02:37:09.240Z,8.53
2019-03-29T02:39:39.502Z,8.07
2019-03-29T02:42:09.557Z,8.77
2019-03-29T02:44:39.537Z,8.17
2019-03-29T02:47:09.497Z,9.73
2019-03-29T02:49:40.417Z,9.50
2019-03-29T02:52:10.687Z,10.53
2019-03-29T02:54:40.692Z,11.30
2019-03-29T02:57:10.705Z,13.13
2019-03-29T02:59:40.687Z,12.63
2019-03-29T03:02:10.999Z,11.53
2019-03-29T03:04:41.005Z,9.93
2019-03-29T03:07:11.192Z,9.53
2019-03-29T03:09:41.340Z,10.73
2019-03-29T03:12:11.548Z,10.77
2019-03-29T03:14:41.759Z,10.03
2019-03-29T03:17:11.762Z,11.07
2019-03-29T03:19:41.734Z,12.23
2019-03-29T03:22:11.684Z,11.00
2019-03-29T03:24:41.902Z,10.30
2019-03-29T03:27:12.160Z,10.63
2019-03-29T03:29:42.273Z,12.23
2019-03-29T03:32:12.125Z,10.43
2019-03-29T03:34:42.183Z,10.87
2019-03-29T03:37:12.191Z,9.60
2019-03-29T03:39:42.316Z,9.47
2019-03-29T03:42:12.155Z,9.43
2019-03-29T03:44:42.189Z,9.07
2019-03-29T03:47:14.692Z,9.67
2019-03-29T03:49:45.006Z,9.57
2019-03-29T03:52:15.151Z,9.27
2019-03-29T03:54:45.174Z,9.00
2019-03-29T03:57:15.646Z,7.80
2019-03-29T03:59:46.135Z,7.73
2019-03-29T04:02:17.501Z,8.13
2019-03-29T04:04:47.463Z,8.63
2019-03-29T04:07:17.379Z,7.57
2019-03-29T04:09:49.946Z,7.27
2019-03-29T04:12:19.114Z,7.83
2019-03-29T04:14:49.407Z,8.00
2019-03-29T04:17:19.651Z,7.73
2019-03-29T04:19:49.708Z,7.73
2019-03-29T04:22:19.901Z,7.10
2019-03-29T04:24:50.036Z,7.27
2019-03-29T04:27:19.973Z,7.00
2019-03-29T04:29:50.058Z,7.43
2019-03-29T04:32:20.023Z,7.97
2019-03-29T04:34:49.967Z,8.20
2019-03-29T04:37:19.908Z,8.43
2019-03-29T04:40:06.513Z,9.20
2019-03-29T04:42:21.296Z,8.37
2019-03-29T04:44:51.203Z,8.40
2019-03-29T04:47:21.304Z,8.77
2019-03-29T04:49:51.155Z,8.97
2019-03-29T04:52:21.350Z,9.40
2019-03-29T04:54:52.822Z,9.03
2019-03-29T04:57:23.599Z,9.03
2019-03-29T04:59:53.693Z,9.43
2019-03-29T05:02:23.746Z,9.80
2019-03-29T05:04:53.839Z,9.43
2019-03-29T05:07:23.919Z,9.60
2019-03-29T05:09:53.976Z,9.03
2019-03-29T05:12:23.941Z,10.57
2019-03-29T05:14:53.850Z,9.53
2019-03-29T05:17:23.774Z,9.30
2019-03-29T05:19:53.886Z,10.80
2019-03-29T05:22:23.976Z,10.30
2019-03-29T05:24:53.959Z,10.97
2019-03-29T05:27:24.050Z,11.17
2019-03-29T05:29:54.316Z,11.70
2019-03-29T05:32:24.500Z,11.37
2019-03-29T05:34:54.417Z,11.73
2019-03-29T05:37:24.963Z,12.00
2019-03-29T05:39:55.098Z,12.13
2019-03-29T05:42:25.197Z,13.07
2019-03-29T05:44:55.306Z,12.67
2019-03-29T05:47:26.489Z,12.27
2019-03-29T05:49:56.580Z,12.13
2019-03-29T05:52:26.548Z,13.43
2019-03-29T05:54:56.923Z,12.47
2019-03-29T05:57:26.955Z,13.63
2019-03-29T05:59:57.262Z,13.00
2019-03-29T06:02:27.225Z,12.83
2019-03-29T06:04:57.268Z,13.73
2019-03-29T06:07:27.444Z,15.07
2019-03-29T06:09:57.635Z,13.53
2019-03-29T06:12:27.916Z,14.87
2019-03-29T06:14:57.940Z,16.37
2019-03-29T06:17:27.802Z,14.80
2019-03-29T06:19:58.125Z,15.57
2019-03-29T06:22:28.339Z,16.47
2019-03-29T06:24:58.650Z,15.93
2019-03-29T06:27:28.668Z,15.80
2019-03-29T06:29:58.707Z,17.03
2019-03-29T06:32:28.818Z,16.30
2019-03-29T06:34:59.049Z,16.90
2019-03-29T06:37:30.235Z,17.13
2019-03-29T06:40:02.368Z,17.37
2019-03-29T06:42:32.802Z,17.83
2019-03-29T06:45:02.698Z,19.43
2019-03-29T06:47:32.681Z,20.00
2019-03-29T06:50:02.880Z,17.93
2019-03-29T06:52:32.964Z,19.07
2019-03-29T06:55:02.995Z,17.93
2019-03-29T06:57:33.330Z,19.27
2019-03-29T07:00:03.752Z,19.07
2019-03-29T07:02:34.099Z,17.93
2019-03-29T07:05:04.579Z,17.43
2019-03-29T07:07:34.541Z,17.93
2019-03-29T07:10:06.367Z,17.77
2019-03-29T07:12:36.391Z,18.20
2019-03-29T07:15:08.049Z,19.30
2019-03-29T07:17:38.118Z,19.37
2019-03-29T07:20:09.018Z,18.77
2019-03-29T07:22:39.230Z,18.83
2019-03-29T07:25:09.524Z,19.20
2019-03-29T07:27:45.845Z,18.47
2019-03-29T07:30:11.299Z,18.63
2019-03-29T07:32:41.291Z,19.53
2019-03-29T07:35:11.398Z,18.47
2019-03-29T07:37:41.692Z,18.60
2019-03-29T07:40:11.980Z,17.60
2019-03-29T07:42:42.241Z,18.13
2019-03-29T07:45:12.428Z,19.13
2019-03-29T07:47:42.620Z,18.63
2019-03-29T07:50:12.751Z,18.07
2019-03-29T07:52:42.916Z,18.70
2019-03-29T07:55:13.324Z,18.27
2019-03-29T07:57:44.021Z,19.27
2019-03-29T08:00:14.527Z,19.03
2019-03-29T08:02:44.542Z,18.23
2019-03-29T08:05:14.661Z,18.97
2019-03-29T08:07:45.015Z,18.70
2019-03-29T08:10:24.514Z,19.37
2019-03-29T08:12:47.198Z,19.27
2019-03-29T08:15:17.670Z,20.20
2019-03-29T08:17:48.013Z,19.53
2019-03-29T08:20:40.214Z,19.50
2019-03-29T08:22:50.031Z,20.13
2019-03-29T08:25:20.226Z,20.77
2019-03-29T08:27:50.436Z,20.00
2019-03-29T08:30:20.518Z,19.83
2019-03-29T08:32:50.823Z,20.90
2019-03-29T08:35:20.779Z,19.97
2019-03-29T08:37:50.674Z,21.27
2019-03-29T08:40:20.628Z,21.17
2019-03-29T08:42:50.668Z,19.80
2019-03-29T08:45:20.749Z,21.43
2019-03-29T08:47:52.196Z,20.63
2019-03-29T08:50:22.416Z,22.77
2019-03-29T08:52:52.533Z,21.67
2019-03-29T08:55:22.524Z,20.33
2019-03-29T08:57:52.568Z,20.83
2019-03-29T09:00:31.974Z,19.80
2019-03-29T09:03:02.245Z,19.83
2019-03-29T09:05:32.375Z,18.97
2019-03-29T09:08:02.553Z,18.27
2019-03-29T09:10:32.632Z,18.80
2019-03-29T09:13:04.363Z,20.33
2019-03-29T09:15:34.427Z,17.40
2019-03-29T09:18:04.537Z,18.57
2019-03-29T09:20:34.916Z,17.80
2019-03-29T09:23:05.013Z,16.90
2019-03-29T09:25:35.103Z,18.40
2019-03-29T09:28:05.212Z,18.80
2019-03-29T09:30:35.498Z,17.50
2019-03-29T09:33:05.543Z,18.07
2019-03-29T09:35:35.477Z,18.63
2019-03-29T09:38:05.377Z,18.13
2019-03-29T09:40:35.576Z,17.87
2019-03-29T09:43:07.996Z,18.93
2019-03-29T09:45:40.833Z,19.33
2019-03-29T09:48:09.079Z,18.23
2019-03-29T09:50:39.274Z,19.70
2019-03-29T09:53:09.379Z,19.93
2019-03-29T09:55:41.345Z,17.53
2019-03-29T09:58:11.367Z,18.63
2019-03-29T10:00:41.474Z,19.03
2019-03-29T10:03:11.436Z,19.03
2019-03-29T10:05:41.736Z,20.07
2019-03-29T10:08:11.767Z,19.43
2019-03-29T10:10:41.824Z,19.70
2019-03-29T10:13:11.716Z,20.23
2019-03-29T10:15:41.743Z,21.80
2019-03-29T10:18:11.736Z,21.57
2019-03-29T10:20:41.743Z,20.77
2019-03-29T10:23:11.989Z,21.40
2019-03-29T10:25:41.930Z,21.80
2019-03-29T10:28:11.999Z,22.53
2019-03-29T10:30:46.612Z,22.80
2019-03-29T10:33:15.236Z,23.17
2019-03-29T10:35:52.158Z,23.10
2019-03-29T10:38:18.488Z,23.00
2019-03-29T10:40:48.675Z,22.87
2019-03-29T10:43:18.743Z,24.13
2019-03-29T10:45:48.800Z,22.40
2019-03-29T10:48:18.714Z,23.47
2019-03-29T10:50:48.755Z,23.73
2019-03-29T10:53:18.699Z,23.33
2019-03-29T10:55:48.933Z,22.07
2019-03-29T10:58:18.934Z,22.30
2019-03-29T11:00:48.882Z,23.33
2019-03-29T11:03:19.402Z,22.77
2019-03-29T11:05:49.569Z,23.13
2019-03-29T11:08:19.800Z,23.80
2019-03-29T11:10:49.906Z,22.97
2019-03-29T11:13:19.942Z,23.23
2019-03-29T11:15:49.834Z,22.80
2019-03-29T11:18:19.919Z,23.67
2019-03-29T11:20:50.041Z,24.53
2019-03-29T11:23:20.163Z,24.67
2019-03-29T11:25:50.325Z,25.70
2019-03-29T11:28:20.320Z,25.07
2019-03-29T11:30:50.742Z,25.77
2019-03-29T11:33:20.863Z,24.10
2019-03-29T11:35:51.012Z,24.00
2019-03-29T11:38:20.941Z,23.27
2019-03-29T11:40:51.023Z,25.17
2019-03-29T11:43:27.003Z,24.17
2019-03-29T11:45:52.638Z,22.23
2019-03-29T11:48:22.799Z,22.90
2019-03-29T11:50:52.845Z,23.63
2019-03-29T11:53:22.835Z,23.67
2019-03-29T11:55:52.901Z,23.20
2019-03-29T11:58:23.517Z,22.57
2019-03-29T12:00:53.563Z,23.23
2019-03-29T12:03:23.630Z,23.73
2019-03-29T12:05:53.808Z,24.10
2019-03-29T12:08:23.846Z,25.23
2019-03-29T12:10:55.746Z,23.67
2019-03-29T12:13:35.060Z,23.90
2019-03-29T12:15:57.258Z,23.63
2019-03-29T12:18:27.349Z,25.00
2019-03-29T12:20:57.300Z,24.00
2019-03-29T12:23:27.436Z,24.80
2019-03-29T12:25:57.339Z,23.93
2019-03-29T12:28:27.588Z,24.57
2019-03-29T12:30:57.651Z,24.03
2019-03-29T12:33:27.609Z,24.63
2019-03-29T12:35:57.541Z,24.80
2019-03-29T12:38:27.510Z,25.17
2019-03-29T12:40:57.777Z,25.00
2019-03-29T12:43:27.890Z,26.23
2019-03-29T12:45:58.024Z,24.87
2019-03-29T12:48:28.007Z,25.17
2019-03-29T12:50:57.988Z,26.50
2019-03-29T12:53:27.918Z,24.87
2019-03-29T12:55:57.890Z,25.07
2019-03-29T12:58:28.022Z,24.77
2019-03-29T13:00:58.326Z,24.40
2019-03-29T13:03:28.431Z,26.43
2019-03-29T13:05:58.416Z,24.83
2019-03-29T13:08:28.344Z,26.20
2019-03-29T13:10:58.596Z,26.37
2019-03-29T13:13:28.667Z,25.97
2019-03-29T13:15:58.829Z,26.47
2019-03-29T13:18:28.769Z,25.50
2019-03-29T13:20:58.971Z,26.37
2019-03-29T13:23:28.940Z,25.00
2019-03-29T13:25:59.099Z,26.00
2019-03-29T13:28:29.178Z,25.67
2019-03-29T13:30:59.336Z,25.83
2019-03-29T13:33:29.331Z,26.50
2019-03-29T13:35:59.408Z,26.67
2019-03-29T13:38:29.514Z,26.07
2019-03-29T13:40:59.388Z,24.83
2019-03-29T13:43:30.927Z,25.73
2019-03-29T13:46:00.911Z,25.17
2019-03-29T13:48:30.835Z,25.47
2019-03-29T13:51:00.867Z,25.00
2019-03-29T13:53:31.181Z,26.20
2019-03-29T13:56:01.023Z,25.37
2019-03-29T13:58:31.182Z,24.67
2019-03-29T14:01:01.139Z,26.50
2019-03-29T14:03:31.181Z,25.27
2019-03-29T14:06:01.353Z,25.03
2019-03-29T14:08:31.297Z,25.33
2019-03-29T14:11:01.373Z,24.83
2019-03-29T14:13:31.298Z,25.23
2019-03-29T14:16:01.300Z,25.93
2019-03-29T14:18:31.337Z,25.13
2019-03-29T14:21:01.895Z,25.23
2019-03-29T14:23:32.230Z,26.50
2019-03-29T14:26:02.974Z,25.47
2019-03-29T14:28:33.118Z,25.93
2019-03-29T14:31:03.534Z,26.53
2019-03-29T14:33:34.042Z,25.80
2019-03-29T14:36:04.616Z,26.33
2019-03-29T14:38:35.152Z,27.00
2019-03-29T14:41:05.747Z,26.03
2019-03-29T14:43:35.847Z,27.87
2019-03-29T14:46:06.368Z,25.77
2019-03-29T14:48:36.518Z,26.37
2019-03-29T14:51:06.707Z,26.60
2019-03-29T14:53:36.904Z,26.80
2019-03-29T14:56:07.223Z,25.60
2019-03-29T14:58:37.430Z,25.77
2019-03-29T15:01:08.030Z,26.83
2019-03-29T15:03:38.307Z,26.53
2019-03-29T15:06:08.385Z,26.00
2019-03-29T15:08:38.731Z,26.57
2019-03-29T15:11:21.483Z,26.60
2019-03-29T15:13:41.074Z,27.17
2019-03-29T15:16:11.025Z,25.97
2019-03-29T15:18:41.071Z,28.47
2019-03-29T15:21:11.349Z,26.73
2019-03-29T15:23:41.705Z,27.33
2019-03-29T15:26:12.228Z,27.07
2019-03-29T15:28:42.480Z,27.80
2019-03-29T15:31:12.696Z,26.17
2019-03-29T15:33:43.168Z,28.00
2019-03-29T15:36:13.668Z,26.23
2019-03-29T15:38:43.800Z,27.57
2019-03-29T15:41:14.441Z,28.97
2019-03-29T15:43:44.640Z,27.87
2019-03-29T15:46:14.918Z,29.20
2019-03-29T15:48:45.100Z,29.73
2019-03-29T15:51:15.548Z,32.13
2019-03-29T15:53:45.901Z,31.43
2019-03-29T15:56:16.153Z,30.77
2019-03-29T15:58:46.533Z,31.70
2019-03-29T16:01:16.874Z,32.73
2019-03-29T16:03:47.086Z,31.03
2019-03-29T16:06:17.121Z,31.47
2019-03-29T16:08:47.383Z,32.10
2019-03-29T16:11:18.772Z,33.03
2019-03-29T16:13:49.227Z,31.87
2019-03-29T16:16:19.425Z,30.60
2019-03-29T16:18:49.542Z,32.43
2019-03-29T16:21:19.607Z,32.03
2019-03-29T16:23:49.727Z,33.77
2019-03-29T16:26:19.893Z,32.93
2019-03-29T16:28:50.044Z,33.13
2019-03-29T16:31:20.253Z,31.40
2019-03-29T16:33:50.555Z,31.60
2019-03-29T16:36:20.544Z,32.30
2019-03-29T16:38:50.764Z,31.47
2019-03-29T16:41:20.737Z,34.87
2019-03-29T16:43:50.910Z,30.97
2019-03-29T16:46:21.050Z,32.73
2019-03-29T16:48:51.365Z,33.13
2019-03-29T16:51:21.478Z,32.53
2019-03-29T16:53:51.906Z,31.77
2019-03-29T16:56:22.095Z,32.77
2019-03-29T16:58:52.354Z,32.60
2019-03-29T17:01:22.699Z,32.83
2019-03-29T17:03:52.830Z,32.33
2019-03-29T17:06:23.097Z,31.83
2019-03-29T17:08:54.666Z,31.70
2019-03-29T17:11:27.329Z,33.30
2019-03-29T17:13:57.356Z,33.97
2019-03-29T17:16:30.681Z,32.97
2019-03-29T17:18:59.304Z,33.40
2019-03-29T17:21:29.526Z,33.80
2019-03-29T17:23:59.489Z,33.50
2019-03-29T17:26:29.425Z,34.50
2019-03-29T17:28:59.736Z,34.17
2019-03-29T17:31:29.974Z,35.10
2019-03-29T17:34:00.165Z,33.50
2019-03-29T17:36:30.295Z,33.70
2019-03-29T17:39:00.375Z,33.47
2019-03-29T17:41:30.493Z,35.20
2019-03-29T17:44:00.564Z,35.10
2019-03-29T17:46:30.557Z,38.10
2019-03-29T17:49:01.009Z,36.67
2019-03-29T17:51:31.205Z,36.70
2019-03-29T17:54:01.544Z,36.53
2019-03-29T17:56:31.745Z,37.87
2019-03-29T17:59:01.680Z,37.20
2019-03-29T18:01:31.867Z,37.77
2019-03-29T18:04:01.893Z,36.53
2019-03-29T18:06:32.101Z,37.33
2019-03-29T18:09:02.202Z,35.30
2019-03-29T18:11:32.172Z,38.70
2019-03-29T18:14:02.261Z,38.57
2019-03-29T18:16:32.125Z,39.93
2019-03-29T18:19:02.355Z,39.77
2019-03-29T18:21:32.628Z,40.40
2019-03-29T18:24:02.441Z,41.77
2019-03-29T18:26:32.529Z,39.90
2019-03-29T18:29:02.638Z,40.97
2019-03-29T18:31:32.821Z,41.70
2019-03-29T18:34:03.187Z,42.13
2019-03-29T18:36:33.666Z,43.73
2019-03-29T18:39:04.584Z,43.13
2019-03-29T18:41:34.754Z,42.60
2019-03-29T18:44:04.930Z,44.80
2019-03-29T18:46:44.513Z,46.20
2019-03-29T18:49:07.013Z,44.90
2019-03-29T18:51:36.943Z,43.70
2019-03-29T18:54:06.999Z,47.10
2019-03-29T18:56:36.974Z,45.23
2019-03-29T18:59:07.065Z,46.37
2019-03-29T19:01:37.136Z,45.13
2019-03-29T19:04:07.284Z,45.60
2019-03-29T19:06:37.464Z,46.53
2019-03-29T19:09:07.775Z,47.17
2019-03-29T19:11:38.340Z,46.97
2019-03-29T19:14:08.651Z,46.43
2019-03-29T19:16:38.698Z,45.17
2019-03-29T19:19:10.289Z,48.90
2019-03-29T19:21:40.643Z,46.33
2019-03-29T19:24:10.955Z,46.33
2019-03-29T19:26:41.223Z,47.60
2019-03-29T19:29:11.203Z,47.23
2019-03-29T19:31:41.457Z,48.07
2019-03-29T19:34:11.389Z,49.00
2019-03-29T19:36:41.457Z,47.87
2019-03-29T19:39:11.458Z,50.03
2019-03-29T19:41:41.416Z,50.50
2019-03-29T19:44:13.725Z,48.90
2019-03-29T19:46:42.984Z,50.37
2019-03-29T19:49:13.204Z,50.47
2019-03-29T19:51:43.249Z,48.90
2019-03-29T19:54:13.597Z,49.27
2019-03-29T19:56:43.729Z,50.20
2019-03-29T19:59:13.658Z,51.53
2019-03-29T20:01:43.695Z,51.60
2019-03-29T20:04:14.326Z,52.07
2019-03-29T20:06:44.385Z,50.50
2019-03-29T20:09:14.564Z,52.20
2019-03-29T20:11:44.757Z,53.20
2019-03-29T20:14:16.554Z,50.53
2019-03-29T20:16:46.769Z,49.03
2019-03-29T20:19:19.858Z,50.83
2019-03-29T20:21:48.577Z,49.57
2019-03-29T20:24:18.543Z,48.73
2019-03-29T20:26:48.622Z,50.80
2019-03-29T20:29:20.443Z,48.77
2019-03-29T20:31:50.887Z,51.63
2019-03-29T20:34:21.054Z,49.70
2019-03-29T20:36:51.047Z,54.00
2019-03-29T20:39:21.113Z,48.33
2019-03-29T20:41:50.965Z,51.17
2019-03-29T20:44:21.251Z,49.90
2019-03-29T20:46:51.384Z,52.20
2019-03-29T20:49:21.512Z,50.30
2019-03-29T20:51:51.782Z,49.23
2019-03-29T20:54:21.796Z,51.03
2019-03-29T20:56:52.076Z,51.53
2019-03-29T20:59:22.057Z,52.10
2019-03-29T21:01:53.023Z,51.37
2019-03-29T21:04:23.256Z,52.87
2019-03-29T21:06:53.283Z,52.37
2019-03-29T21:09:23.397Z,52.87
2019-03-29T21:11:53.488Z,51.73
2019-03-29T21:14:23.882Z,55.37
2019-03-29T21:16:54.282Z,53.03
2019-03-29T21:19:24.506Z,53.17
2019-03-29T21:21:54.577Z,55.53
2019-03-29T21:24:24.663Z,56.00
2019-03-29T21:26:54.855Z,55.53
2019-03-29T21:29:24.793Z,55.23
2019-03-29T21:31:55.018Z,52.90
2019-03-29T21:34:25.212Z,52.73
2019-03-29T21:36:55.311Z,53.03
2019-03-29T21:39:25.217Z,51.47
2019-03-29T21:41:55.302Z,49.37
2019-03-29T21:44:25.243Z,50.73
2019-03-29T21:46:55.430Z,50.67
2019-03-29T21:49:25.386Z,50.27
2019-03-29T21:51:55.399Z,51.47
2019-03-29T21:54:25.411Z,50.27
2019-03-29T21:56:55.414Z,53.13
2019-03-29T21:59:25.863Z,51.53
2019-03-29T22:01:56.031Z,52.47
2019-03-29T22:04:26.032Z,52.37
2019-03-29T22:06:56.022Z,51.37
2019-03-29T22:09:36.454Z,50.13
2019-03-29T22:11:57.541Z,51.07
2019-03-29T22:14:27.482Z,50.40
2019-03-29T22:16:57.426Z,49.73
2019-03-29T22:19:28.011Z,53.83
2019-03-29T22:21:57.975Z,51.57
2019-03-29T22:24:27.946Z,53.17
2019-03-29T22:26:57.944Z,48.47
2019-03-29T22:29:27.855Z,50.70
2019-03-29T22:31:57.759Z,51.30
2019-03-29T22:34:27.699Z,51.33
2019-03-29T22:36:57.631Z,53.87
2019-03-29T22:39:27.633Z,54.73
2019-03-29T22:41:57.557Z,53.47
2019-03-29T22:44:27.442Z,57.10
2019-03-29T22:46:57.772Z,56.70
2019-03-29T22:49:27.686Z,58.33
2019-03-29T22:51:57.592Z,54.83
2019-03-29T22:54:27.689Z,52.27
2019-03-29T22:56:57.973Z,53.40
2019-03-29T22:59:27.976Z,53.63
2019-03-29T23:01:58.535Z,54.03
2019-03-29T23:04:28.652Z,56.77
2019-03-29T23:06:58.634Z,53.77
2019-03-29T23:09:28.629Z,52.53
2019-03-29T23:11:58.672Z,48.77
2019-03-29T23:14:28.682Z,50.43
2019-03-29T23:16:58.549Z,52.83
2019-03-29T23:19:28.411Z,50.73
2019-03-29T23:21:58.427Z,52.10
2019-03-29T23:24:28.335Z,49.47
2019-03-29T23:26:58.387Z,51.03
2019-03-29T23:29:28.471Z,50.20
2019-03-29T23:31:58.456Z,53.13
2019-03-29T23:34:28.333Z,52.93
2019-03-29T23:36:58.249Z,54.37
2019-03-29T23:39:28.137Z,54.27
2019-03-29T23:41:58.145Z,53.57
2019-03-29T23:44:28.153Z,53.13
2019-03-29T23:46:58.235Z,53.50
2019-03-29T23:49:28.257Z,53.53
2019-03-29T23:51:58.131Z,52.73
2019-03-29T23:54:28.115Z,53.50
2019-03-29T23:56:58.073Z,54.43
2019-03-29T23:59:28.005Z,55.47
